CheckWX is a tool to help pilots better visualize weather data.  It is not intended as a substitute for an official pre-flight weather briefing.

10:10:35 UTC

KGEU METAR
Glendale Municipal Airport
Glendale, Arizona, USA
Current

7 hours ago

KGEU 190250Z 29004KT 10SM SCT160 22/02 A2994 RMK LAST
Observed
Feb-19 @ 02:50 UTC
Wind
  • 290° at 4 KTS
Visibility
10 SM
Flight Rules
VFR
Cloud Levels
  • Scattered at 16,000' AGL
Temperature
22°C / 72°F
Dewpoint
C / 36°F
Humidity
27%
Altimeter
29.94" Hg
Pressure
1013.92 hPa
Previous

8 hours ago

KGEU 190150Z 00000KT 10SM SCT160 22/02 A2994
Observed
Feb-19 @ 01:50 UTC
Visibility
10 SM
Flight Rules
VFR
Cloud Levels
  • Scattered at 16,000' AGL
Temperature
22°C / 72°F
Dewpoint
C / 36°F
Humidity
27%
Altimeter
29.94" Hg
Pressure
1013.92 hPa
Previous

9 hours ago

KGEU 190050Z 00000KT 10SM SCT160 23/00 A2993
Observed
Feb-19 @ 00:50 UTC
Visibility
10 SM
Flight Rules
VFR
Cloud Levels
  • Scattered at 16,000' AGL
Temperature
23°C / 73°F
Dewpoint
C / 32°F
Humidity
22%
Altimeter
29.93" Hg
Pressure
1013.52 hPa